createdAt,value
2018-06-16T00:00:15.692Z,148782.27
2018-06-16T00:02:46.851Z,148788.50
2018-06-16T00:05:18.731Z,148799.70
2018-06-16T00:07:49.888Z,148817.13
2018-06-16T00:10:21.011Z,148790.98
2018-06-16T00:12:52.014Z,148786.00
2018-06-16T00:15:23.393Z,148798.45
2018-06-16T00:17:54.310Z,148786.00
2018-06-16T00:20:25.168Z,148764.78
2018-06-16T00:22:56.237Z,148769.77
2018-06-16T00:25:27.322Z,148742.38
2018-06-16T00:27:58.252Z,148732.41
2018-06-16T00:30:30.558Z,148707.42
2018-06-16T00:33:01.809Z,148726.19
2018-06-16T00:35:32.947Z,148727.44
2018-06-16T00:38:03.868Z,148736.16
2018-06-16T00:40:35.694Z,148707.42
2018-06-16T00:43:07.496Z,148699.95
2018-06-16T00:45:38.870Z,148692.48
2018-06-16T00:48:10.045Z,148673.75
2018-06-16T00:50:41.070Z,148687.50
2018-06-16T00:53:12.237Z,148671.27
2018-06-16T00:55:43.458Z,148677.50
2018-06-16T00:58:14.689Z,148697.47
2018-06-16T01:00:46.888Z,148708.66
2018-06-16T01:03:17.946Z,148717.42
2018-06-16T01:05:50.068Z,148728.69
2018-06-16T01:08:21.271Z,148741.12
2018-06-16T01:10:52.459Z,148739.88
2018-06-16T01:13:23.582Z,148722.41
2018-06-16T01:15:54.603Z,148714.89
2018-06-16T01:18:25.938Z,148692.48
2018-06-16T01:20:57.374Z,148708.66
2018-06-16T01:23:28.476Z,148694.97
2018-06-16T01:25:59.372Z,148694.97
2018-06-16T01:28:30.111Z,148687.50
2018-06-16T01:31:01.318Z,148665.05
2018-06-16T01:33:33.422Z,148688.75
2018-06-16T01:36:04.471Z,148677.50
2018-06-16T01:38:35.678Z,148687.50
2018-06-16T01:41:06.598Z,148678.78
2018-06-16T01:43:37.648Z,148672.52
2018-06-16T01:46:08.750Z,148673.75
2018-06-16T01:48:39.823Z,148642.64
2018-06-16T01:51:11.121Z,148656.33
2018-06-16T01:53:42.223Z,148628.91
2018-06-16T01:56:14.319Z,148600.28
2018-06-16T01:58:46.211Z,148595.30
2018-06-16T02:01:18.318Z,148585.34
2018-06-16T02:03:49.278Z,148592.81
2018-06-16T02:06:21.403Z,148589.08
2018-06-16T02:08:52.561Z,148606.50
2018-06-16T02:11:23.848Z,148597.78
2018-06-16T02:13:55.165Z,148585.34
2018-06-16T02:16:26.149Z,148541.73
2018-06-16T02:18:57.117Z,148528.00
2018-06-16T02:21:28.054Z,148540.50
2018-06-16T02:23:59.123Z,148544.22
2018-06-16T02:26:30.382Z,148529.25
2018-06-16T02:29:01.531Z,148535.47
2018-06-16T02:31:34.564Z,148547.97
2018-06-16T02:34:05.552Z,148493.11
2018-06-16T02:36:36.712Z,148520.53
2018-06-16T02:39:09.830Z,148555.42
2018-06-16T02:41:40.997Z,148570.36
2018-06-16T02:44:12.422Z,148528.00
2018-06-16T02:46:43.996Z,148541.73
2018-06-16T02:49:15.009Z,148584.09
2018-06-16T02:51:46.283Z,148576.58
2018-06-16T02:54:17.248Z,148599.03
2018-06-16T02:56:49.255Z,148630.14
2018-06-16T02:59:20.598Z,148602.77
2018-06-16T03:01:51.765Z,148638.91
2018-06-16T03:04:23.841Z,148683.77
2018-06-16T03:06:55.537Z,148758.56
2018-06-16T03:09:26.583Z,148800.94
2018-06-16T03:11:58.548Z,148981.80
2018-06-16T03:14:29.752Z,149248.84
2018-06-16T03:17:00.667Z,149496.16
2018-06-16T03:19:32.414Z,149733.56
2018-06-16T03:22:03.565Z,149982.39
2018-06-16T03:24:34.774Z,150205.16
2018-06-16T03:27:06.745Z,150441.78
2018-06-16T03:29:37.755Z,150549.50
2018-06-16T03:32:08.773Z,150761.23
2018-06-16T03:34:39.896Z,150995.73
2018-06-16T03:37:11.673Z,151183.89
2018-06-16T03:39:42.749Z,151206.50
2018-06-16T03:42:15.167Z,151294.37
2018-06-16T03:44:46.343Z,151337.03
2018-06-16T03:47:17.340Z,151409.84
2018-06-16T03:49:48.397Z,151424.89
2018-06-16T03:52:19.856Z,151445.00
2018-06-16T03:54:50.972Z,151235.38
2018-06-16T03:57:23.678Z,151387.28
2018-06-16T03:59:54.792Z,151461.30
2018-06-16T04:02:26.571Z,151250.45
2018-06-16T04:04:57.672Z,151131.22
2018-06-16T04:07:28.849Z,151003.30
2018-06-16T04:10:00.952Z,151048.38
2018-06-16T04:12:33.785Z,151217.78
2018-06-16T04:15:04.759Z,151079.75
2018-06-16T04:17:35.846Z,151161.33
2018-06-16T04:20:07.152Z,150920.48
2018-06-16T04:22:38.170Z,150796.39
2018-06-16T04:25:09.649Z,150861.59
2018-06-16T04:27:41.721Z,150701.11
2018-06-16T04:30:12.820Z,151060.97
2018-06-16T04:32:43.733Z,151214.02
2018-06-16T04:35:15.035Z,151175.11
2018-06-16T04:37:46.190Z,151481.41
2018-06-16T04:40:17.243Z,151294.37
2018-06-16T04:42:48.279Z,151298.13
2018-06-16T04:45:19.307Z,151344.56
2018-06-16T04:47:50.300Z,151447.50
2018-06-16T04:50:20.905Z,151792.94
2018-06-16T04:52:52.455Z,151982.70
2018-06-16T04:55:23.638Z,151982.70
2018-06-16T04:57:54.940Z,151811.81
2018-06-16T05:00:26.354Z,151987.72
2018-06-16T05:02:57.409Z,152201.53
2018-06-16T05:05:28.567Z,152175.11
2018-06-16T05:07:59.577Z,152420.42
2018-06-16T05:10:30.695Z,152576.52
2018-06-16T05:13:01.730Z,152224.14
2018-06-16T05:15:32.898Z,152196.52
2018-06-16T05:18:05.327Z,152472.00
2018-06-16T05:20:36.366Z,151961.36
2018-06-16T05:23:08.313Z,152108.45
2018-06-16T05:25:39.798Z,151723.83
2018-06-16T05:28:11.052Z,151566.78
2018-06-16T05:30:43.230Z,152166.31
2018-06-16T05:33:14.607Z,152494.67
2018-06-16T05:35:45.773Z,152908.97
2018-06-16T05:38:17.856Z,152385.19
2018-06-16T05:40:48.972Z,152155.02
2018-06-16T05:43:20.621Z,152480.84
2018-06-16T05:45:51.730Z,153066.44
2018-06-16T05:48:23.115Z,152534.98
2018-06-16T05:50:54.386Z,152659.58
2018-06-16T05:53:25.269Z,152745.19
2018-06-16T05:55:56.488Z,152891.31
2018-06-16T05:58:27.508Z,152669.69
2018-06-16T06:00:58.479Z,152903.91
2018-06-16T06:03:30.385Z,152813.23
2018-06-16T06:06:01.617Z,152616.75
2018-06-16T06:08:32.906Z,152924.06
2018-06-16T06:11:04.630Z,153690.63
2018-06-16T06:13:36.442Z,153869.84
2018-06-16T06:16:07.713Z,153915.27
2018-06-16T06:18:39.191Z,154195.55
2018-06-16T06:21:10.991Z,153738.55
2018-06-16T06:23:42.302Z,152901.37
2018-06-16T06:26:13.505Z,152895.09
2018-06-16T06:28:45.460Z,152741.41
2018-06-16T06:31:16.581Z,152644.50
2018-06-16T06:33:47.779Z,152902.64
2018-06-16T06:36:18.654Z,153006.00
2018-06-16T06:38:49.900Z,153227.77
2018-06-16T06:41:21.768Z,153960.75
2018-06-16T06:43:53.311Z,153816.78
2018-06-16T06:46:26.144Z,153739.81
2018-06-16T06:48:57.205Z,154089.48
2018-06-16T06:51:29.418Z,153866.06
2018-06-16T06:54:00.864Z,153770.16
2018-06-16T06:56:32.562Z,153757.50
2018-06-16T06:59:03.896Z,154026.34
2018-06-16T07:01:35.154Z,153882.45
2018-06-16T07:04:07.202Z,153908.92
2018-06-16T07:06:38.541Z,153867.33
2018-06-16T07:09:11.392Z,154054.08
2018-06-16T07:11:42.860Z,153877.41
2018-06-16T07:14:14.579Z,153775.19
2018-06-16T07:16:46.369Z,154062.95
2018-06-16T07:19:18.036Z,154023.83
2018-06-16T07:21:49.138Z,154220.81
2018-06-16T07:24:21.085Z,154208.20
2018-06-16T07:26:52.156Z,154018.78
2018-06-16T07:29:22.825Z,153839.50
2018-06-16T07:31:53.437Z,153869.84
2018-06-16T07:34:24.084Z,153860.97
2018-06-16T07:36:54.714Z,153661.59
2018-06-16T07:39:25.819Z,153842.03
2018-06-16T07:41:56.954Z,153996.05
2018-06-16T07:44:28.732Z,154041.47
2018-06-16T07:46:59.867Z,154009.95
2018-06-16T07:49:32.044Z,154218.30
2018-06-16T07:52:02.939Z,154142.48
2018-06-16T07:54:34.052Z,153997.30
2018-06-16T07:57:05.111Z,154119.78
2018-06-16T07:59:39.604Z,154234.69
2018-06-16T08:02:10.584Z,153967.05
2018-06-16T08:04:41.883Z,154223.34
2018-06-16T08:07:13.246Z,153937.95
2018-06-16T08:09:44.571Z,153560.67
2018-06-16T08:12:15.644Z,152931.63
2018-06-16T08:14:46.799Z,152681.00
2018-06-16T08:17:17.913Z,152430.48
2018-06-16T08:19:48.765Z,152129.80
2018-06-16T08:22:20.072Z,151800.47
2018-06-16T08:24:51.834Z,151575.61
2018-06-16T08:27:23.181Z,151501.52
2018-06-16T08:29:54.221Z,151428.66
2018-06-16T08:32:25.130Z,151365.92
2018-06-16T08:34:56.346Z,151308.16
2018-06-16T08:37:27.336Z,151383.52
2018-06-16T08:39:58.709Z,151353.33
2018-06-16T08:42:29.841Z,151349.56
2018-06-16T08:45:01.114Z,151193.97
2018-06-16T08:47:33.380Z,151240.42
2018-06-16T08:50:04.938Z,151304.39
2018-06-16T08:52:36.078Z,151306.91
2018-06-16T08:55:07.643Z,151349.56
2018-06-16T08:57:38.733Z,151344.56
2018-06-16T09:00:11.014Z,151281.78
2018-06-16T09:02:42.789Z,151299.38
2018-06-16T09:05:13.801Z,151192.70
2018-06-16T09:07:44.757Z,151136.22
2018-06-16T09:10:15.888Z,151131.22
2018-06-16T09:12:46.850Z,151117.44
2018-06-16T09:15:18.221Z,151177.63
2018-06-16T09:17:49.458Z,151257.97
2018-06-16T09:20:20.826Z,151344.56
2018-06-16T09:22:52.242Z,151411.09
2018-06-16T09:25:23.445Z,151441.23
2018-06-16T09:27:54.658Z,151401.06
2018-06-16T09:30:25.886Z,151318.19
2018-06-16T09:32:57.143Z,151364.61
2018-06-16T09:35:28.406Z,151412.34
2018-06-16T09:37:59.712Z,151483.91
2018-06-16T09:40:30.826Z,151419.87
2018-06-16T09:43:01.961Z,151426.14
2018-06-16T09:45:32.897Z,151422.38
2018-06-16T09:48:04.804Z,151290.61
2018-06-16T09:50:35.911Z,151329.47
2018-06-16T09:53:08.016Z,151187.66
2018-06-16T09:55:40.426Z,151124.95
2018-06-16T09:58:11.626Z,151203.98
2018-06-16T10:00:43.046Z,151281.78
2018-06-16T10:03:14.331Z,151334.47
2018-06-16T10:05:45.645Z,151352.08
2018-06-16T10:08:16.947Z,151419.87
2018-06-16T10:10:48.164Z,151357.09
2018-06-16T10:13:19.219Z,151419.87
2018-06-16T10:15:50.576Z,151303.14
2018-06-16T10:18:23.441Z,151372.19
2018-06-16T10:20:54.697Z,151399.81
2018-06-16T10:23:25.831Z,151319.44
2018-06-16T10:25:56.994Z,151273.02
2018-06-16T10:28:28.010Z,151324.45
2018-06-16T10:30:59.466Z,151278.03
2018-06-16T10:33:31.324Z,151181.39
2018-06-16T10:36:02.383Z,151276.78
2018-06-16T10:38:34.330Z,151123.70
2018-06-16T10:41:05.811Z,151178.88
2018-06-16T10:43:37.635Z,151178.88
2018-06-16T10:46:08.771Z,151111.17
2018-06-16T10:48:39.812Z,151151.31
2018-06-16T10:51:11.000Z,151053.44
2018-06-16T10:53:44.144Z,151038.38
2018-06-16T10:56:15.623Z,150864.09
2018-06-16T10:58:47.869Z,150897.91
2018-06-16T11:01:19.158Z,150980.70
2018-06-16T11:03:49.995Z,150885.37
2018-06-16T11:06:21.140Z,150924.25
2018-06-16T11:08:52.394Z,150915.48
2018-06-16T11:11:23.453Z,150933.02
2018-06-16T11:13:54.313Z,150976.94
2018-06-16T11:16:25.383Z,150999.48
2018-06-16T11:18:56.560Z,151035.86
2018-06-16T11:21:27.848Z,151049.69
2018-06-16T11:24:00.666Z,150956.91
2018-06-16T11:26:32.927Z,150910.47
2018-06-16T11:29:04.082Z,150785.08
2018-06-16T11:31:35.176Z,150756.23
2018-06-16T11:34:06.272Z,150742.47
2018-06-16T11:36:37.488Z,150761.23
2018-06-16T11:39:11.822Z,150734.95
2018-06-16T11:41:42.888Z,150733.70
2018-06-16T11:44:14.128Z,150737.45
2018-06-16T11:46:45.171Z,150662.27
2018-06-16T11:49:16.349Z,150569.53
2018-06-16T11:51:47.292Z,150637.19
2018-06-16T11:54:19.522Z,150672.33
2018-06-16T11:56:51.019Z,150662.27
2018-06-16T11:59:21.943Z,150756.23
2018-06-16T12:01:53.840Z,150821.47
2018-06-16T12:04:25.095Z,150896.66
2018-06-16T12:06:56.184Z,151005.80
2018-06-16T12:09:29.922Z,151045.88
2018-06-16T12:12:01.110Z,151004.55
2018-06-16T12:14:32.458Z,150969.44
2018-06-16T12:17:03.655Z,150916.73
2018-06-16T12:19:36.213Z,150861.59
2018-06-16T12:22:07.287Z,150881.63
2018-06-16T12:24:38.389Z,150742.47
2018-06-16T12:27:11.380Z,150777.56
2018-06-16T12:29:42.439Z,150765.05
2018-06-16T12:32:13.768Z,150759.98
2018-06-16T12:34:45.191Z,150726.19
2018-06-16T12:37:17.327Z,150742.47
2018-06-16T12:39:48.615Z,150751.22
2018-06-16T12:42:19.805Z,150744.97
2018-06-16T12:44:50.980Z,150718.69
2018-06-16T12:47:22.418Z,150718.69
2018-06-16T12:49:53.498Z,150768.80
2018-06-16T12:52:25.072Z,150747.47
2018-06-16T12:54:56.435Z,150702.36
2018-06-16T12:57:27.910Z,150669.83
2018-06-16T13:00:00.268Z,150613.36
2018-06-16T13:02:32.503Z,150589.59
2018-06-16T13:05:03.452Z,150570.78
2018-06-16T13:07:34.684Z,150579.58
2018-06-16T13:10:06.025Z,150559.52
2018-06-16T13:12:38.301Z,150538.25
2018-06-16T13:15:09.514Z,150509.42
2018-06-16T13:17:40.813Z,150525.69
2018-06-16T13:20:12.082Z,150520.69
2018-06-16T13:22:43.462Z,150504.42
2018-06-16T13:25:14.584Z,150455.53
2018-06-16T13:27:45.970Z,150420.47
2018-06-16T13:30:16.981Z,150394.20
2018-06-16T13:32:48.831Z,150372.91
2018-06-16T13:35:19.973Z,150351.64
2018-06-16T13:37:51.405Z,150327.78
2018-06-16T13:40:22.453Z,150321.53
2018-06-16T13:42:54.346Z,150299.03
2018-06-16T13:45:25.574Z,150312.78
2018-06-16T13:47:56.966Z,150311.53
2018-06-16T13:50:27.943Z,150275.22
2018-06-16T13:53:00.050Z,150222.66
2018-06-16T13:55:31.668Z,150101.28
2018-06-16T13:58:04.598Z,150133.78
2018-06-16T14:00:36.756Z,150172.56
2018-06-16T14:03:08.779Z,150198.91
2018-06-16T14:05:39.933Z,150215.16
2018-06-16T14:08:11.328Z,150226.41
2018-06-16T14:10:44.090Z,150260.22
2018-06-16T14:13:16.184Z,150302.78
2018-06-16T14:15:47.252Z,150354.14
2018-06-16T14:18:18.540Z,150332.78
2018-06-16T14:20:50.287Z,150380.39
2018-06-16T14:23:21.314Z,150434.28
2018-06-16T14:25:53.500Z,150484.36
2018-06-16T14:28:24.609Z,150535.75
2018-06-16T14:30:55.650Z,150455.53
2018-06-16T14:33:26.877Z,150436.78
2018-06-16T14:35:58.090Z,150494.41
2018-06-16T14:38:29.523Z,150543.25
2018-06-16T14:41:01.308Z,150548.25
2018-06-16T14:43:32.547Z,150558.27
2018-06-16T14:46:03.404Z,150575.83
2018-06-16T14:48:35.062Z,150560.77
2018-06-16T14:51:06.236Z,150476.80
2018-06-16T14:53:37.363Z,150438.03
2018-06-16T14:56:08.468Z,150433.03
2018-06-16T14:58:41.163Z,150450.53
2018-06-16T15:01:12.882Z,150464.30
2018-06-16T15:03:44.209Z,150400.45
2018-06-16T15:06:16.771Z,150389.20
2018-06-16T15:08:48.381Z,150266.47
2018-06-16T15:11:28.233Z,150289.02
2018-06-16T15:13:59.294Z,150302.78
2018-06-16T15:16:31.323Z,150243.97
2018-06-16T15:19:02.307Z,150138.78
2018-06-16T15:21:42.862Z,150141.28
2018-06-16T15:24:14.904Z,150067.50
2018-06-16T15:26:52.108Z,150083.73
2018-06-16T15:29:23.952Z,150051.20
2018-06-16T15:31:55.323Z,150031.20
2018-06-16T15:34:27.502Z,150024.97
2018-06-16T15:36:59.184Z,149961.16
2018-06-16T15:39:30.402Z,149947.36
2018-06-16T15:42:01.985Z,149899.84
2018-06-16T15:44:33.141Z,149881.11
2018-06-16T15:47:04.680Z,149866.13
2018-06-16T15:49:35.961Z,149869.88
2018-06-16T15:52:08.831Z,149846.09
2018-06-16T15:54:40.085Z,149822.31
2018-06-16T15:57:11.181Z,149821.06
2018-06-16T15:59:42.305Z,149778.56
2018-06-16T16:05:00.000Z,149726.08
2018-06-16T16:07:38.829Z,149704.81
2018-06-16T16:10:10.800Z,149689.83
2018-06-16T16:12:42.213Z,149654.78
2018-06-16T16:15:13.781Z,149652.28
2018-06-16T16:17:45.191Z,149658.53
2018-06-16T16:20:28.359Z,149631.06
2018-06-16T16:22:59.605Z,149593.58
2018-06-16T16:28:10.257Z,149569.81
2018-06-16T16:30:49.869Z,149444.91
2018-06-16T16:33:24.433Z,149576.06
2018-06-16T16:35:55.823Z,149552.34
2018-06-16T16:38:26.571Z,149547.34
2018-06-16T16:40:57.346Z,149547.34
2018-06-16T16:43:28.103Z,149512.38
2018-06-16T16:45:58.858Z,149511.13
2018-06-16T16:48:38.386Z,149473.59
2018-06-16T16:51:10.194Z,149488.61
2018-06-16T16:53:42.087Z,149482.37
2018-06-16T16:56:12.768Z,149478.58
2018-06-16T16:58:43.502Z,149482.37
2018-06-16T17:01:14.253Z,149462.36
2018-06-16T17:03:55.586Z,149478.58
2018-06-16T17:06:26.271Z,149453.63
2018-06-16T17:08:58.762Z,149414.91
2018-06-16T17:11:34.598Z,149394.95
2018-06-16T17:14:10.557Z,149392.47
2018-06-16T17:16:41.942Z,149346.27
2018-06-16T17:19:12.976Z,149355.00
2018-06-16T17:21:44.359Z,149313.78
2018-06-16T17:24:20.655Z,149357.48
2018-06-16T17:26:51.923Z,149347.52
2018-06-16T17:29:24.689Z,149318.78
2018-06-16T17:31:59.496Z,149303.77
2018-06-16T17:34:37.124Z,149288.75
2018-06-16T17:37:15.296Z,149291.25
2018-06-16T17:39:47.252Z,149256.34
2018-06-16T17:42:18.379Z,149236.34
2018-06-16T17:44:59.000Z,149213.89
2018-06-16T17:47:32.320Z,149196.39
2018-06-16T17:50:10.956Z,149213.89
2018-06-16T17:52:47.788Z,149215.14
2018-06-16T17:55:25.062Z,149216.39
2018-06-16T17:57:57.281Z,149243.81
2018-06-16T18:00:30.409Z,149245.06
2018-06-16T18:03:15.031Z,149240.08
2018-06-16T18:05:52.790Z,149247.61
2018-06-16T18:08:28.696Z,149242.58
2018-06-16T18:11:02.637Z,149238.83
2018-06-16T18:13:45.252Z,149240.08
2018-06-16T18:16:23.199Z,149227.61
2018-06-16T18:18:57.796Z,149208.91
2018-06-16T18:21:28.535Z,149200.19
2018-06-16T18:24:17.073Z,149210.16
2018-06-16T18:26:51.173Z,149205.17
2018-06-16T18:29:23.941Z,149235.09
2018-06-16T18:32:03.544Z,149221.38
2018-06-16T18:34:39.293Z,149220.13
2018-06-16T18:37:16.637Z,149220.13
2018-06-16T18:39:53.828Z,149218.88
2018-06-16T18:42:24.904Z,149185.17
2018-06-16T18:44:58.113Z,149181.44
2018-06-16T18:47:32.989Z,149195.16
2018-06-16T18:50:05.952Z,149202.67
2018-06-16T18:52:38.206Z,149177.69
2018-06-16T18:55:15.267Z,149144.00
2018-06-16T18:57:57.514Z,149134.02
2018-06-16T19:00:29.053Z,149131.53
2018-06-16T19:03:02.859Z,149121.56
2018-06-16T19:05:39.405Z,149087.81
2018-06-16T19:08:11.490Z,149086.56
2018-06-16T19:10:43.843Z,149102.77
2018-06-16T19:13:18.790Z,149084.06
2018-06-16T19:16:01.020Z,149086.56
2018-06-16T19:18:41.221Z,149041.66
2018-06-16T19:21:13.448Z,149094.03
2018-06-16T19:23:49.679Z,149094.03
2018-06-16T19:26:21.635Z,149111.53
2018-06-16T19:28:58.539Z,149124.05
2018-06-16T19:31:42.935Z,149130.28
2018-06-16T19:34:21.858Z,149145.23
2018-06-16T19:36:54.378Z,149159.00
2018-06-16T19:39:30.478Z,149154.02
2018-06-16T19:42:01.507Z,149176.45
2018-06-16T19:44:44.892Z,149168.97
2018-06-16T19:47:27.677Z,149161.48
2018-06-16T19:49:58.737Z,149150.22
2018-06-16T19:52:33.952Z,149120.31
2018-06-16T19:55:10.549Z,149151.52
2018-06-16T19:57:47.709Z,149168.97
2018-06-16T20:00:27.847Z,149168.97
2018-06-16T20:02:59.236Z,149181.44
2018-06-16T20:05:30.431Z,149150.22
2018-06-16T20:08:01.612Z,149131.53
2018-06-16T20:13:09.896Z,149136.52
2018-06-16T20:15:41.003Z,149110.30
2018-06-16T20:18:17.656Z,149091.55
2018-06-16T20:20:50.835Z,149061.64
2018-06-16T20:23:22.046Z,149049.12
2018-06-16T20:25:53.349Z,149046.64
2018-06-16T20:28:24.901Z,149041.66
2018-06-16T20:31:12.455Z,149029.19
2018-06-16T20:33:44.449Z,149013.00
2018-06-16T20:36:19.353Z,149029.19
2018-06-16T20:38:50.612Z,149044.14
2018-06-16T20:41:21.695Z,149026.69
2018-06-16T20:46:45.995Z,149041.66
2018-06-16T20:49:17.072Z,149065.38
2018-06-16T20:51:56.284Z,149079.09
2018-06-16T20:54:28.587Z,149077.84
2018-06-16T20:57:01.788Z,149080.33
2018-06-16T20:59:32.973Z,149092.80
2018-06-16T21:02:04.228Z,149106.56
2018-06-16T21:04:35.792Z,149111.53
2018-06-16T21:07:08.138Z,149115.28
2018-06-16T21:09:39.581Z,149114.03
2018-06-16T21:12:20.550Z,149117.77
2018-06-16T21:14:51.648Z,149120.31
2018-06-16T21:17:23.457Z,149102.77
2018-06-16T21:19:55.586Z,149109.05
2018-06-16T21:22:26.718Z,149089.06
2018-06-16T21:24:57.982Z,149090.30
2018-06-16T21:27:29.411Z,149097.78
2018-06-16T21:30:01.785Z,149081.58
2018-06-16T21:32:44.211Z,149077.84
2018-06-16T21:35:15.477Z,149077.84
2018-06-16T21:37:46.855Z,149086.56
2018-06-16T21:40:17.851Z,149084.06
2018-06-16T21:42:48.845Z,149069.12
2018-06-16T21:45:19.678Z,149067.87
2018-06-16T21:47:50.922Z,149101.52
2018-06-16T21:50:22.451Z,149106.56
2018-06-16T21:52:53.478Z,149132.78
2018-06-16T21:55:24.372Z,149147.73
2018-06-16T21:57:56.217Z,149139.00
2018-06-16T22:00:31.550Z,149148.97
2018-06-16T22:03:02.776Z,149148.97
2018-06-16T22:05:34.060Z,149154.02
2018-06-16T22:08:09.915Z,149148.97
2018-06-16T22:10:41.300Z,149145.23
2018-06-16T22:13:12.444Z,149134.02
2018-06-16T22:15:44.557Z,149114.03
2018-06-16T22:18:16.517Z,149099.03
2018-06-16T22:20:49.362Z,149081.58
2018-06-16T22:23:20.339Z,149071.61
2018-06-16T22:25:52.291Z,149081.58
2018-06-16T22:28:23.968Z,149056.66
2018-06-16T22:30:56.147Z,149057.91
2018-06-16T22:33:27.305Z,149030.44
2018-06-16T22:35:58.484Z,149020.47
2018-06-16T22:38:29.665Z,148998.00
2018-06-16T22:41:00.628Z,148991.77
2018-06-16T22:43:32.160Z,148984.28
2018-06-16T22:46:03.429Z,148979.31
2018-06-16T22:48:34.351Z,148980.55
2018-06-16T22:51:05.512Z,148969.34
2018-06-16T22:53:36.644Z,148981.80
2018-06-16T22:58:38.121Z,148954.34
2018-06-16T23:01:09.181Z,148944.38
2018-06-16T23:03:40.084Z,148964.36
2018-06-16T23:06:10.999Z,148945.63
2018-06-16T23:08:41.960Z,148934.41
2018-06-16T23:11:13.051Z,148931.91
2018-06-16T23:13:45.155Z,148919.41
2018-06-16T23:16:16.584Z,148928.19
2018-06-16T23:18:47.612Z,148930.67
2018-06-16T23:21:19.886Z,148915.67
2018-06-16T23:23:50.853Z,148914.42
2018-06-16T23:26:22.944Z,148909.41
2018-06-16T23:28:53.977Z,148905.66
2018-06-16T23:31:24.945Z,148898.19
2018-06-16T23:33:55.950Z,148894.44
2018-06-16T23:36:26.947Z,148899.44
2018-06-16T23:38:58.172Z,148923.19
2018-06-16T23:41:29.434Z,148909.41
2018-06-16T23:44:00.611Z,148920.66
2018-06-16T23:46:31.644Z,148911.89
2018-06-16T23:49:02.725Z,148911.89
2018-06-16T23:51:36.006Z,148914.42
2018-06-16T23:54:07.195Z,148925.69
2018-06-16T23:56:38.438Z,148914.42
2018-06-16T23:59:09.653Z,148914.42
